Terminal Aerodrome Forecast
Issued by NWS Tuscon, AZ

Home | Current Version | Previous Version | Text Only | Print | Product List | Glossary On
Versions: 1 2 3 4 5 6 7 8 9 10 11 12
000
FTUS45 KTWC 092320
TAFDUG
TAF
KDUG 092320Z 1000/1024 VRB03KT P6SM OVC200
     FM100200 36007KT P6SM OVC200
     FM101000 VRB03KT P6SM BKN200
     FM101900 23007KT P6SM SCT200=

USA.gov is the U.S. government's official web portal to all federal, state and local government web resources and services.